sensor_id;sensor_type;location;lat;lon;timestamp;pressure;altitude;pressure_sealevel;temperature;humidity
60871;BME280;46714;50.118;14.462;2024-01-06T00:01:15;97762.22;;;4.06;100.00
60871;BME280;46714;50.118;14.462;2024-01-06T00:03:41;97764.91;;;4.06;100.00
60871;BME280;46714;50.118;14.462;2024-01-06T00:06:07;97763.84;;;4.07;100.00
60871;BME280;46714;50.118;14.462;2024-01-06T00:08:32;97769.25;;;4.07;100.00
60871;BME280;46714;50.118;14.462;2024-01-06T00:11:01;97769.25;;;4.07;100.00
60871;BME280;46714;50.118;14.462;2024-01-06T00:13:28;97758.72;;;4.06;100.00
60871;BME280;46714;50.118;14.462;2024-01-06T00:15:53;97765.09;;;4.05;100.00
60871;BME280;46714;50.118;14.462;2024-01-06T00:18:19;97758.28;;;4.02;100.00
60871;BME280;46714;50.118;14.462;2024-01-06T00:20:44;97760.34;;;4.00;100.00
60871;BME280;46714;50.118;14.462;2024-01-06T00:23:09;97754.34;;;3.98;100.00
60871;BME280;46714;50.118;14.462;2024-01-06T00:25:35;97742.94;;;3.96;100.00
60871;BME280;46714;50.118;14.462;2024-01-06T00:28:00;97756.63;;;3.94;100.00
60871;BME280;46714;50.118;14.462;2024-01-06T00:30:25;97762.22;;;3.93;100.00
60871;BME280;46714;50.118;14.462;2024-01-06T00:32:51;97765.97;;;3.92;100.00
60871;BME280;46714;50.118;14.462;2024-01-06T00:35:16;97765.53;;;3.95;100.00
60871;BME280;46714;50.118;14.462;2024-01-06T00:37:41;97762.63;;;3.96;100.00
60871;BME280;46714;50.118;14.462;2024-01-06T00:40:07;97769.25;;;4.01;100.00
60871;BME280;46714;50.118;14.462;2024-01-06T00:42:32;97765.31;;;4.03;100.00
60871;BME280;46714;50.118;14.462;2024-01-06T00:44:58;97762.63;;;4.03;100.00
60871;BME280;46714;50.118;14.462;2024-01-06T00:47:23;97765.94;;;4.05;100.00
60871;BME280;46714;50.118;14.462;2024-01-06T00:49:49;97767.59;;;4.06;100.00
60871;BME280;46714;50.118;14.462;2024-01-06T00:52:14;97777.56;;;4.06;100.00
60871;BME280;46714;50.118;14.462;2024-01-06T00:54:40;97776.06;;;4.03;100.00
60871;BME280;46714;50.118;14.462;2024-01-06T00:57:05;97775.88;;;4.05;100.00
60871;BME280;46714;50.118;14.462;2024-01-06T00:59:31;97775.88;;;4.05;100.00
60871;BME280;46714;50.118;14.462;2024-01-06T01:01:56;97779.38;;;4.05;100.00
60871;BME280;46714;50.118;14.462;2024-01-06T01:04:21;97776.69;;;4.05;100.00
60871;BME280;46714;50.118;14.462;2024-01-06T01:06:47;97785.00;;;4.04;100.00
60871;BME280;46714;50.118;14.462;2024-01-06T01:09:12;97790.59;;;4.02;100.00
60871;BME280;46714;50.118;14.462;2024-01-06T01:11:39;97784.56;;;4.00;100.00
60871;BME280;46714;50.118;14.462;2024-01-06T01:14:04;97788.09;;;4.01;100.00
60871;BME280;46714;50.118;14.462;2024-01-06T01:16:30;97799.72;;;4.01;100.00
60871;BME280;46714;50.118;14.462;2024-01-06T01:18:57;97801.56;;;4.01;100.00
60871;BME280;46714;50.118;14.462;2024-01-06T01:21:23;97798.84;;;4.01;100.00
60871;BME280;46714;50.118;14.462;2024-01-06T01:23:48;97799.72;;;3.94;100.00
60871;BME280;46714;50.118;14.462;2024-01-06T01:26:13;97791.63;;;3.88;100.00
60871;BME280;46714;50.118;14.462;2024-01-06T01:28:39;97805.88;;;3.82;100.00
60871;BME280;46714;50.118;14.462;2024-01-06T01:31:04;97797.81;;;3.75;100.00
60871;BME280;46714;50.118;14.462;2024-01-06T01:33:30;97804.22;;;3.74;100.00
60871;BME280;46714;50.118;14.462;2024-01-06T01:35:55;97806.94;;;3.74;100.00
60871;BME280;46714;50.118;14.462;2024-01-06T01:38:20;97792.03;;;3.78;100.00
60871;BME280;46714;50.118;14.462;2024-01-06T01:40:46;97792.63;;;3.80;100.00
60871;BME280;46714;50.118;14.462;2024-01-06T01:43:20;97800.94;;;3.78;100.00
60871;BME280;46714;50.118;14.462;2024-01-06T01:45:48;97800.09;;;3.78;100.00
60871;BME280;46714;50.118;14.462;2024-01-06T01:48:17;97800.69;;;3.80;100.00
60871;BME280;46714;50.118;14.462;2024-01-06T01:50:44;97800.31;;;3.83;100.00
60871;BME280;46714;50.118;14.462;2024-01-06T01:53:10;97796.38;;;3.86;100.00
60871;BME280;46714;50.118;14.462;2024-01-06T01:55:37;97802.78;;;3.85;100.00
60871;BME280;46714;50.118;14.462;2024-01-06T01:58:03;97796.19;;;3.81;100.00
60871;BME280;46714;50.118;14.462;2024-01-06T02:00:30;97798.88;;;3.81;100.00
60871;BME280;46714;50.118;14.462;2024-01-06T02:02:55;97791.81;;;3.80;100.00
60871;BME280;46714;50.118;14.462;2024-01-06T02:05:22;97795.31;;;3.80;100.00
60871;BME280;46714;50.118;14.462;2024-01-06T02:07:47;97793.25;;;3.82;100.00
60871;BME280;46714;50.118;14.462;2024-01-06T02:10:15;97787.69;;;3.84;100.00
60871;BME280;46714;50.118;14.462;2024-01-06T02:12:41;97785.81;;;3.84;100.00
60871;BME280;46714;50.118;14.462;2024-01-06T02:15:06;97786.63;;;3.85;100.00
60871;BME280;46714;50.118;14.462;2024-01-06T02:17:32;97785.41;;;3.87;100.00
60871;BME280;46714;50.118;14.462;2024-01-06T02:19:57;97792.25;;;3.90;100.00
60871;BME280;46714;50.118;14.462;2024-01-06T02:22:23;97790.81;;;3.87;100.00
60871;BME280;46714;50.118;14.462;2024-01-06T02:24:48;97789.53;;;3.83;100.00
60871;BME280;46714;50.118;14.462;2024-01-06T02:27:14;97781.47;;;3.76;100.00
60871;BME280;46714;50.118;14.462;2024-01-06T02:29:39;97786.22;;;3.74;100.00
60871;BME280;46714;50.118;14.462;2024-01-06T02:32:05;97790.97;;;3.72;100.00
60871;BME280;46714;50.118;14.462;2024-01-06T02:34:30;97788.47;;;3.71;100.00
60871;BME280;46714;50.118;14.462;2024-01-06T02:36:57;97793.66;;;3.72;100.00
60871;BME280;46714;50.118;14.462;2024-01-06T02:39:23;97796.16;;;3.74;100.00
60871;BME280;46714;50.118;14.462;2024-01-06T02:41:49;97795.75;;;3.77;100.00
60871;BME280;46714;50.118;14.462;2024-01-06T02:44:14;97797.19;;;3.80;100.00
60871;BME280;46714;50.118;14.462;2024-01-06T02:46:40;97792.44;;;3.82;100.00
60871;BME280;46714;50.118;14.462;2024-01-06T02:49:05;97791.41;;;3.83;100.00
60871;BME280;46714;50.118;14.462;2024-01-06T02:51:31;97795.75;;;3.84;100.00
60871;BME280;46714;50.118;14.462;2024-01-06T02:53:56;97799.50;;;3.83;100.00
60871;BME280;46714;50.118;14.462;2024-01-06T02:56:21;97797.00;;;3.81;100.00
60871;BME280;46714;50.118;14.462;2024-01-06T02:58:47;97797.63;;;3.83;100.00
60871;BME280;46714;50.118;14.462;2024-01-06T03:01:12;97797.41;;;3.85;100.00
60871;BME280;46714;50.118;14.462;2024-01-06T03:03:38;97804.44;;;3.86;100.00
60871;BME280;46714;50.118;14.462;2024-01-06T03:06:03;97798.25;;;3.85;100.00
60871;BME280;46714;50.118;14.462;2024-01-06T03:08:28;97811.47;;;3.87;100.00
60871;BME280;46714;50.118;14.462;2024-01-06T03:10:54;97815.22;;;3.86;100.00
60871;BME280;46714;50.118;14.462;2024-01-06T03:13:19;97804.44;;;3.86;100.00
60871;BME280;46714;50.118;14.462;2024-01-06T03:15:45;97804.44;;;3.86;100.00
60871;BME280;46714;50.118;14.462;2024-01-06T03:18:10;97807.97;;;3.86;100.00
60871;BME280;46714;50.118;14.462;2024-01-06T03:20:36;97815.41;;;3.84;100.00
60871;BME280;46714;50.118;14.462;2024-01-06T03:23:01;97801.34;;;3.82;100.00
60871;BME280;46714;50.118;14.462;2024-01-06T03:25:27;97794.09;;;3.83;100.00
60871;BME280;46714;50.118;14.462;2024-01-06T03:27:52;97795.56;;;3.85;100.00
60871;BME280;46714;50.118;14.462;2024-01-06T03:30:18;97794.50;;;3.86;100.00
60871;BME280;46714;50.118;14.462;2024-01-06T03:32:43;97790.38;;;3.84;100.00
60871;BME280;46714;50.118;14.462;2024-01-06T03:35:08;97792.44;;;3.82;100.00
60871;BME280;46714;50.118;14.462;2024-01-06T03:37:34;97795.13;;;3.82;100.00
60871;BME280;46714;50.118;14.462;2024-01-06T03:39:59;97790.78;;;3.81;100.00
60871;BME280;46714;50.118;14.462;2024-01-06T03:42:24;97791.63;;;3.81;100.00
60871;BME280;46714;50.118;14.462;2024-01-06T03:44:50;97797.00;;;3.81;100.00
60871;BME280;46714;50.118;14.462;2024-01-06T03:47:15;97796.19;;;3.81;100.00
60871;BME280;46714;50.118;14.462;2024-01-06T03:49:40;97795.31;;;3.80;100.00
60871;BME280;46714;50.118;14.462;2024-01-06T03:52:06;97798.25;;;3.78;100.00
60871;BME280;46714;50.118;14.462;2024-01-06T03:54:31;97800.69;;;3.80;100.00
60871;BME280;46714;50.118;14.462;2024-01-06T03:56:57;97798.00;;;3.80;100.00
60871;BME280;46714;50.118;14.462;2024-01-06T03:59:22;97798.25;;;3.78;100.00
60871;BME280;46714;50.118;14.462;2024-01-06T04:01:47;97793.06;;;3.77;100.00
60871;BME280;46714;50.118;14.462;2024-01-06T04:04:13;97789.34;;;3.78;100.00
60871;BME280;46714;50.118;14.462;2024-01-06T04:06:38;97787.47;;;3.78;100.00
60871;BME280;46714;50.118;14.462;2024-01-06T04:09:04;97786.66;;;3.78;100.00
60871;BME280;46714;50.118;14.462;2024-01-06T04:11:30;97784.78;;;3.78;100.00
60871;BME280;46714;50.118;14.462;2024-01-06T04:13:55;97785.78;;;3.77;100.00
60871;BME280;46714;50.118;14.462;2024-01-06T04:16:21;97785.78;;;3.77;100.00
60871;BME280;46714;50.118;14.462;2024-01-06T04:18:46;97792.44;;;3.75;100.00
60871;BME280;46714;50.118;14.462;2024-01-06T04:21:12;97792.44;;;3.75;100.00
60871;BME280;46714;50.118;14.462;2024-01-06T04:23:37;97787.03;;;3.75;100.00
60871;BME280;46714;50.118;14.462;2024-01-06T04:26:02;97784.97;;;3.77;100.00
60871;BME280;46714;50.118;14.462;2024-01-06T04:28:29;97788.28;;;3.79;100.00
60871;BME280;46714;50.118;14.462;2024-01-06T04:30:55;97790.16;;;3.78;100.00
60871;BME280;46714;50.118;14.462;2024-01-06T04:33:20;97786.22;;;3.81;100.00
60871;BME280;46714;50.118;14.462;2024-01-06T04:35:46;97780.84;;;3.81;100.00
60871;BME280;46714;50.118;14.462;2024-01-06T04:38:11;97784.34;;;3.82;100.00
60871;BME280;46714;50.118;14.462;2024-01-06T04:40:36;97781.88;;;3.80;100.00
60871;BME280;46714;50.118;14.462;2024-01-06T04:43:02;97785.78;;;3.77;100.00
60871;BME280;46714;50.118;14.462;2024-01-06T04:45:28;97791.41;;;3.76;100.00
60871;BME280;46714;50.118;14.462;2024-01-06T04:47:54;97797.81;;;3.75;100.00
60871;BME280;46714;50.118;14.462;2024-01-06T04:50:19;97793.25;;;3.75;100.00
60871;BME280;46714;50.118;14.462;2024-01-06T04:52:45;97794.91;;;3.76;100.00
60871;BME280;46714;50.118;14.462;2024-01-06T04:55:10;97799.47;;;3.69;100.00
60871;BME280;46714;50.118;14.462;2024-01-06T04:57:36;97800.91;;;3.65;100.00
60871;BME280;46714;50.118;14.462;2024-01-06T05:00:02;97807.34;;;3.64;100.00
60871;BME280;46714;50.118;14.462;2024-01-06T05:02:28;97810.03;;;3.64;100.00
60871;BME280;46714;50.118;14.462;2024-01-06T05:04:54;97809.81;;;3.66;100.00
60871;BME280;46714;50.118;14.462;2024-01-06T05:07:19;97823.06;;;3.67;100.00
60871;BME280;46714;50.118;14.462;2024-01-06T05:09:45;97815.00;;;3.67;100.00
60871;BME280;46714;50.118;14.462;2024-01-06T05:12:10;97818.31;;;3.69;100.00
60871;BME280;46714;50.118;14.462;2024-01-06T05:14:35;97809.41;;;3.69;100.00
60871;BME280;46714;50.118;14.462;2024-01-06T05:17:01;97816.44;;;3.70;100.00
60871;BME280;46714;50.118;14.462;2024-01-06T05:19:26;97815.63;;;3.69;100.00
60871;BME280;46714;50.118;14.462;2024-01-06T05:21:51;97805.47;;;3.65;100.00
60871;BME280;46714;50.118;14.462;2024-01-06T05:24:17;97806.91;;;3.61;100.00
60871;BME280;46714;50.118;14.462;2024-01-06T05:26:44;97815.16;;;3.59;100.00
60871;BME280;46714;50.118;14.462;2024-01-06T05:29:09;97808.34;;;3.56;100.00
60871;BME280;46714;50.118;14.462;2024-01-06T05:31:35;97812.25;;;3.54;100.00
60871;BME280;46714;50.118;14.462;2024-01-06T05:34:00;97808.13;;;3.51;100.00
60871;BME280;46714;50.118;14.462;2024-01-06T05:36:25;97817.63;;;3.54;100.00
60871;BME280;46714;50.118;14.462;2024-01-06T05:38:51;97826.75;;;3.53;100.00
60871;BME280;46714;50.118;14.462;2024-01-06T05:41:16;97826.34;;;3.56;100.00
60871;BME280;46714;50.118;14.462;2024-01-06T05:43:42;97836.06;;;3.57;100.00
60871;BME280;46714;50.118;14.462;2024-01-06T05:46:07;97832.34;;;3.58;100.00
60871;BME280;46714;50.118;14.462;2024-01-06T05:48:33;97830.47;;;3.59;100.00
60871;BME280;46714;50.118;14.462;2024-01-06T05:50:59;97827.78;;;3.59;100.00
60871;BME280;46714;50.118;14.462;2024-01-06T05:53:24;97840.84;;;3.62;100.00
60871;BME280;46714;50.118;14.462;2024-01-06T05:55:49;97832.97;;;3.60;100.00
60871;BME280;46714;50.118;14.462;2024-01-06T05:58:15;97832.56;;;3.63;100.00
60871;BME280;46714;50.118;14.462;2024-01-06T06:00:41;97850.38;;;3.64;100.00
60871;BME280;46714;50.118;14.462;2024-01-06T06:03:06;97851.22;;;3.65;100.00
60871;BME280;46714;50.118;14.462;2024-01-06T06:05:32;97852.84;;;3.66;100.00
60871;BME280;46714;50.118;14.462;2024-01-06T06:07:58;97854.53;;;3.67;100.00
60871;BME280;46714;50.118;14.462;2024-01-06T06:10:23;97861.56;;;3.68;100.00
60871;BME280;46714;50.118;14.462;2024-01-06T06:12:54;97865.28;;;3.67;100.00
60871;BME280;46714;50.118;14.462;2024-01-06T06:15:20;97870.88;;;3.65;100.00
60871;BME280;46714;50.118;14.462;2024-01-06T06:17:45;97882.25;;;3.67;100.00
60871;BME280;46714;50.118;14.462;2024-01-06T06:20:11;97883.72;;;3.70;100.00
60871;BME280;46714;50.118;14.462;2024-01-06T06:22:37;97880.81;;;3.71;100.00
60871;BME280;46714;50.118;14.462;2024-01-06T06:25:02;97882.47;;;3.72;100.00
60871;BME280;46714;50.118;14.462;2024-01-06T06:27:28;97887.84;;;3.72;100.00
60871;BME280;46714;50.118;14.462;2024-01-06T06:29:54;97891.78;;;3.70;100.00
60871;BME280;46714;50.118;14.462;2024-01-06T06:32:21;97901.91;;;3.68;100.00
60871;BME280;46714;50.118;14.462;2024-01-06T06:34:46;97903.78;;;3.67;100.00
60871;BME280;46714;50.118;14.462;2024-01-06T06:37:12;97903.16;;;3.65;100.00
60871;BME280;46714;50.118;14.462;2024-01-06T06:39:37;97907.09;;;3.63;100.00
60871;BME280;46714;50.118;14.462;2024-01-06T06:42:02;97909.97;;;3.61;100.00
60871;BME280;46714;50.118;14.462;2024-01-06T06:44:28;97906.63;;;3.59;100.00
60871;BME280;46714;50.118;14.462;2024-01-06T06:46:54;97902.31;;;3.58;100.00
60871;BME280;46714;50.118;14.462;2024-01-06T06:49:20;97903.94;;;3.59;100.00
60871;BME280;46714;50.118;14.462;2024-01-06T06:51:45;97908.50;;;3.59;100.00
60871;BME280;46714;50.118;14.462;2024-01-06T06:54:14;97911.19;;;3.59;100.00
60871;BME280;46714;50.118;14.462;2024-01-06T06:56:43;97911.19;;;3.59;100.00
60871;BME280;46714;50.118;14.462;2024-01-06T06:59:08;97914.31;;;3.55;100.00
60871;BME280;46714;50.118;14.462;2024-01-06T07:01:34;97917.19;;;3.54;100.00
60871;BME280;46714;50.118;14.462;2024-01-06T07:04:00;97924.22;;;3.55;100.00
60871;BME280;46714;50.118;14.462;2024-01-06T07:06:27;97926.91;;;3.55;100.00
60871;BME280;46714;50.118;14.462;2024-01-06T07:08:52;97928.78;;;3.54;100.00
60871;BME280;46714;50.118;14.462;2024-01-06T07:11:17;97933.13;;;3.55;100.00
60871;BME280;46714;50.118;14.462;2024-01-06T07:13:44;97943.91;;;3.55;100.00
60871;BME280;46714;50.118;14.462;2024-01-06T07:16:10;97932.91;;;3.57;100.00
60871;BME280;46714;50.118;14.462;2024-01-06T07:18:36;97936.25;;;3.59;100.00
60871;BME280;46714;50.118;14.462;2024-01-06T07:21:04;97940.78;;;3.59;100.00
60871;BME280;46714;50.118;14.462;2024-01-06T07:23:31;97951.56;;;3.59;100.00
60871;BME280;46714;50.118;14.462;2024-01-06T07:25:56;97949.28;;;3.55;100.00
60871;BME280;46714;50.118;14.462;2024-01-06T07:28:22;97948.84;;;3.52;100.00
60871;BME280;46714;50.118;14.462;2024-01-06T07:30:47;97957.09;;;3.50;100.00
60871;BME280;46714;50.118;14.462;2024-01-06T07:33:12;97956.28;;;3.50;100.00
60871;BME280;46714;50.118;14.462;2024-01-06T07:35:38;97956.91;;;3.52;100.00
60871;BME280;46714;50.118;14.462;2024-01-06T07:38:08;97956.28;;;3.50;100.00
60871;BME280;46714;50.118;14.462;2024-01-06T07:40:36;97960.00;;;3.49;100.00
60871;BME280;46714;50.118;14.462;2024-01-06T07:43:02;97956.28;;;3.50;100.00
60871;BME280;46714;50.118;14.462;2024-01-06T07:45:27;97965.38;;;3.49;100.00
60871;BME280;46714;50.118;14.462;2024-01-06T07:47:52;97969.31;;;3.46;100.00
60871;BME280;46714;50.118;14.462;2024-01-06T07:50:18;97979.44;;;3.44;100.00
60871;BME280;46714;50.118;14.462;2024-01-06T07:52:43;97973.81;;;3.46;100.00
60871;BME280;46714;50.118;14.462;2024-01-06T07:55:09;97981.53;;;3.49;100.00
60871;BME280;46714;50.118;14.462;2024-01-06T07:57:34;97983.16;;;3.50;100.00
60871;BME280;46714;50.118;14.462;2024-01-06T08:00:02;97989.19;;;3.52;100.00
60871;BME280;46714;50.118;14.462;2024-01-06T08:02:29;97986.09;;;3.55;100.00
60871;BME280;46714;50.118;14.462;2024-01-06T08:04:54;97990.28;;;3.58;100.00
60871;BME280;46714;50.118;14.462;2024-01-06T08:07:20;97987.34;;;3.59;100.00
60871;BME280;46714;50.118;14.462;2024-01-06T08:09:46;97988.63;;;3.63;100.00
60871;BME280;46714;50.118;14.462;2024-01-06T08:12:12;97995.06;;;3.62;100.00
60871;BME280;46714;50.118;14.462;2024-01-06T08:14:37;97987.16;;;3.61;100.00
60871;BME280;46714;50.118;14.462;2024-01-06T08:17:02;97994.19;;;3.62;100.00
60871;BME280;46714;50.118;14.462;2024-01-06T08:19:28;97999.78;;;3.60;100.00
60871;BME280;46714;50.118;14.462;2024-01-06T08:21:55;97995.66;;;3.58;100.00
60871;BME280;46714;50.118;14.462;2024-01-06T08:24:20;97997.50;;;3.57;100.00
60871;BME280;46714;50.118;14.462;2024-01-06T08:26:46;98007.44;;;3.56;100.00
60871;BME280;46714;50.118;14.462;2024-01-06T08:29:12;98011.78;;;3.58;100.00
60871;BME280;46714;50.118;14.462;2024-01-06T08:31:39;98023.56;;;3.56;100.00
60871;BME280;46714;50.118;14.462;2024-01-06T08:34:04;98014.66;;;3.56;100.00
60871;BME280;46714;50.118;14.462;2024-01-06T08:36:31;98017.56;;;3.54;100.00
60871;BME280;46714;50.118;14.462;2024-01-06T08:38:56;98013.84;;;3.55;100.00
60871;BME280;46714;50.118;14.462;2024-01-06T08:41:21;98014.66;;;3.56;100.00
60871;BME280;46714;50.118;14.462;2024-01-06T08:43:47;98016.75;;;3.61;100.00
60871;BME280;46714;50.118;14.462;2024-01-06T08:46:12;98013.47;;;3.65;100.00
60871;BME280;46714;50.118;14.462;2024-01-06T08:48:37;98027.16;;;3.70;100.00
60871;BME280;46714;50.118;14.462;2024-01-06T08:51:03;98022.19;;;3.67;100.00
60871;BME280;46714;50.118;14.462;2024-01-06T08:53:29;98030.47;;;3.72;100.00
60871;BME280;46714;50.118;14.462;2024-01-06T08:55:54;98030.06;;;3.75;100.00
60871;BME280;46714;50.118;14.462;2024-01-06T08:58:20;98031.75;;;3.76;100.00
60871;BME280;46714;50.118;14.462;2024-01-06T09:00:45;98032.59;;;3.77;100.00
60871;BME280;46714;50.118;14.462;2024-01-06T09:03:10;98022.63;;;3.77;100.00
60871;BME280;46714;50.118;14.462;2024-01-06T09:05:37;98026.19;;;3.78;100.00
60871;BME280;46714;50.118;14.462;2024-01-06T09:08:02;98025.13;;;3.79;100.00
60871;BME280;46714;50.118;14.462;2024-01-06T09:10:28;98026.78;;;3.80;100.00
60871;BME280;46714;50.118;14.462;2024-01-06T09:12:54;98023.91;;;3.82;100.00
60871;BME280;46714;50.118;14.462;2024-01-06T09:15:20;98029.72;;;3.85;100.00
60871;BME280;46714;50.118;14.462;2024-01-06T09:17:45;98020.44;;;3.88;100.00
60871;BME280;46714;50.118;14.462;2024-01-06T09:20:10;98029.13;;;3.90;100.00
60871;BME280;46714;50.118;14.462;2024-01-06T09:22:36;98026.66;;;3.95;100.00
60871;BME280;46714;50.118;14.462;2024-01-06T09:25:01;98031.84;;;3.96;100.00
60871;BME280;46714;50.118;14.462;2024-01-06T09:27:27;98027.72;;;4.01;100.00
60871;BME280;46714;50.118;14.462;2024-01-06T09:29:53;98031.84;;;4.03;100.00
60871;BME280;46714;50.118;14.462;2024-01-06T09:32:19;98040.56;;;4.05;100.00
60871;BME280;46714;50.118;14.462;2024-01-06T09:34:44;98047.41;;;4.01;100.00
60871;BME280;46714;50.118;14.462;2024-01-06T09:37:09;98048.44;;;4.00;100.00
60871;BME280;46714;50.118;14.462;2024-01-06T09:39:35;98051.94;;;4.01;100.00
60871;BME280;46714;50.118;14.462;2024-01-06T09:42:00;98044.50;;;4.03;100.00
60871;BME280;46714;50.118;14.462;2024-01-06T09:44:26;98050.94;;;4.02;100.00
60871;BME280;46714;50.118;14.462;2024-01-06T09:46:52;98057.13;;;4.02;100.00
60871;BME280;46714;50.118;14.462;2024-01-06T09:49:20;98057.13;;;4.02;100.00
60871;BME280;46714;50.118;14.462;2024-01-06T09:51:49;98060.66;;;4.03;100.00
60871;BME280;46714;50.118;14.462;2024-01-06T09:54:19;98057.34;;;4.07;100.00
60871;BME280;46714;50.118;14.462;2024-01-06T09:56:49;98052.41;;;4.11;100.00
60871;BME280;46714;50.118;14.462;2024-01-06T09:59:15;98049.31;;;4.14;100.00
60871;BME280;46714;50.118;14.462;2024-01-06T10:01:41;98051.00;;;4.15;100.00
60871;BME280;46714;50.118;14.462;2024-01-06T10:04:06;98053.47;;;4.16;100.00
60871;BME280;46714;50.118;14.462;2024-01-06T10:06:32;98056.16;;;4.16;100.00
60871;BME280;46714;50.118;14.462;2024-01-06T10:08:58;98042.31;;;4.19;100.00
60871;BME280;46714;50.118;14.462;2024-01-06T10:11:23;98051.84;;;4.22;100.00
60871;BME280;46714;50.118;14.462;2024-01-06T10:13:49;98043.97;;;4.27;100.00
60871;BME280;46714;50.118;14.462;2024-01-06T10:16:15;98043.97;;;4.27;100.00
60871;BME280;46714;50.118;14.462;2024-01-06T10:18:41;98041.09;;;4.29;100.00
60871;BME280;46714;50.118;14.462;2024-01-06T10:21:07;98031.97;;;4.30;100.00
60871;BME280;46714;50.118;14.462;2024-01-06T10:23:33;98040.25;;;4.35;100.00
60871;BME280;46714;50.118;14.462;2024-01-06T10:25:59;98042.34;;;4.39;100.00
60871;BME280;46714;50.118;14.462;2024-01-06T10:28:25;98040.09;;;4.43;100.00
60871;BME280;46714;50.118;14.462;2024-01-06T10:30:53;98049.81;;;4.44;100.00
60871;BME280;46714;50.118;14.462;2024-01-06T10:33:21;98050.25;;;4.41;100.00
60871;BME280;46714;50.118;14.462;2024-01-06T10:35:47;98052.31;;;4.39;100.00
60871;BME280;46714;50.118;14.462;2024-01-06T10:38:14;98046.69;;;4.34;100.00
60871;BME280;46714;50.118;14.462;2024-01-06T10:40:50;98050.81;;;4.30;100.00
60871;BME280;46714;50.118;14.462;2024-01-06T10:43:27;98043.16;;;4.27;100.00
60871;BME280;46714;50.118;14.462;2024-01-06T10:45:56;98037.34;;;4.30;100.00
60871;BME280;46714;50.118;14.462;2024-01-06T10:48:25;98038.63;;;4.34;100.00
60871;BME280;46714;50.118;14.462;2024-01-06T10:50:52;98037.56;;;4.35;100.00
60871;BME280;46714;50.118;14.462;2024-01-06T10:53:20;98022.03;;;4.37;100.00
60871;BME280;46714;50.118;14.462;2024-01-06T10:55:48;98026.41;;;4.38;100.00
60871;BME280;46714;50.118;14.462;2024-01-06T10:58:15;98023.72;;;4.38;100.00
60871;BME280;46714;50.118;14.462;2024-01-06T11:00:42;98014.59;;;4.39;100.00
60871;BME280;46714;50.118;14.462;2024-01-06T11:03:08;98014.16;;;4.42;100.00
60871;BME280;46714;50.118;14.462;2024-01-06T11:05:35;98012.97;;;4.45;100.00
60871;BME280;46714;50.118;14.462;2024-01-06T11:08:03;98016.06;;;4.48;100.00
60871;BME280;46714;50.118;14.462;2024-01-06T11:10:29;98015.66;;;4.45;100.00
60871;BME280;46714;50.118;14.462;2024-01-06T11:13:07;98021.22;;;4.43;100.00
60871;BME280;46714;50.118;14.462;2024-01-06T11:18:33;98020.44;;;4.49;100.00
60871;BME280;46714;50.118;14.462;2024-01-06T11:21:21;98017.31;;;4.52;100.00
60871;BME280;46714;50.118;14.462;2024-01-06T11:26:49;98020.84;;;4.53;100.00
60871;BME280;46714;50.118;14.462;2024-01-06T11:29:16;98016.69;;;4.57;100.00
60871;BME280;46714;50.118;14.462;2024-01-06T11:31:42;98011.31;;;4.57;100.00
60871;BME280;46714;50.118;14.462;2024-01-06T11:34:15;98021.25;;;4.56;100.00
60871;BME280;46714;50.118;14.462;2024-01-06T11:36:44;98017.13;;;4.54;100.00
60871;BME280;46714;50.118;14.462;2024-01-06T11:42:07;98025.38;;;4.46;100.00
60871;BME280;46714;50.118;14.462;2024-01-06T11:44:39;98021.88;;;4.45;100.00
60871;BME280;46714;50.118;14.462;2024-01-06T11:47:07;98024.56;;;4.45;100.00
60871;BME280;46714;50.118;14.462;2024-01-06T11:49:36;98025.78;;;4.43;100.00
60871;BME280;46714;50.118;14.462;2024-01-06T11:52:02;98015.41;;;4.39;100.00
60871;BME280;46714;50.118;14.462;2024-01-06T11:54:28;98032.19;;;4.41;100.00
60871;BME280;46714;50.118;14.462;2024-01-06T11:56:53;98027.41;;;4.37;100.00
60871;BME280;46714;50.118;14.462;2024-01-06T11:59:20;98025.78;;;4.36;100.00
60871;BME280;46714;50.118;14.462;2024-01-06T12:01:46;98025.78;;;4.36;100.00
60871;BME280;46714;50.118;14.462;2024-01-06T12:04:15;98024.94;;;4.35;100.00
60871;BME280;46714;50.118;14.462;2024-01-06T12:06:40;98023.88;;;4.30;100.00
60871;BME280;46714;50.118;14.462;2024-01-06T12:09:07;98029.91;;;4.32;100.00
60871;BME280;46714;50.118;14.462;2024-01-06T12:11:34;98028.63;;;4.28;100.00
60871;BME280;46714;50.118;14.462;2024-01-06T12:14:00;98035.25;;;4.25;100.00
60871;BME280;46714;50.118;14.462;2024-01-06T12:16:25;98025.31;;;4.26;100.00
60871;BME280;46714;50.118;14.462;2024-01-06T12:18:55;98022.44;;;4.27;100.00
60871;BME280;46714;50.118;14.462;2024-01-06T12:21:25;98020.78;;;4.26;100.00
60871;BME280;46714;50.118;14.462;2024-01-06T12:23:50;98016.00;;;4.28;100.00
60871;BME280;46714;50.118;14.462;2024-01-06T12:26:16;98028.63;;;4.28;100.00
60871;BME280;46714;50.118;14.462;2024-01-06T12:28:44;98018.91;;;4.27;100.00
60871;BME280;46714;50.118;14.462;2024-01-06T12:31:10;98016.22;;;4.27;100.00
60871;BME280;46714;50.118;14.462;2024-01-06T12:33:37;98022.63;;;4.26;100.00
60871;BME280;46714;50.118;14.462;2024-01-06T12:36:04;98026.56;;;4.30;100.00
60871;BME280;46714;50.118;14.462;2024-01-06T12:38:31;98027.41;;;4.30;100.00
60871;BME280;46714;50.118;14.462;2024-01-06T12:40:56;98026.16;;;4.33;100.00
60871;BME280;46714;50.118;14.462;2024-01-06T12:43:22;98020.38;;;4.36;100.00
60871;BME280;46714;50.118;14.462;2024-01-06T12:45:47;98018.31;;;4.38;100.00
60871;BME280;46714;50.118;14.462;2024-01-06T12:48:14;98021.44;;;4.41;100.00
60871;BME280;46714;50.118;14.462;2024-01-06T12:50:39;98019.78;;;4.40;100.00
60871;BME280;46714;50.118;14.462;2024-01-06T12:53:05;98025.16;;;4.34;100.00